Time;durP1;ratioP1;P1;durP2;ratioP2;P2;SDS_P1;SDS_P2;PMS_P1;PMS_P2;Temp;Humidity;BMP_temperature;BMP_pressure;BME280_temperature;BME280_humidity;BME280_pressure;Samples;Min_cycle;Max_cycle;Signal;HPM_P1;HPM_P2
2022/08/12 00:44:09;;;;;;;6.75;5.30;;;18.00;99.90;;;;;;5089890;28;20042;-60
2022/08/12 00:46:46;;;;;;;6.65;4.93;;;18.00;99.90;;;;;;5078542;28;20028;-59
2022/08/12 00:49:12;;;;;;;7.35;5.50;;;18.00;99.90;;;;;;5092220;28;20035;-59
2022/08/12 00:54:23;;;;;;;8.30;5.15;;;18.00;99.90;;;;;;5089080;28;20031;-58
2022/08/12 00:56:49;;;;;;;7.57;5.72;;;17.90;99.90;;;;;;5090570;28;20373;-59
2022/08/12 00:59:15;;;;;;;8.82;5.63;;;17.90;99.90;;;;;;5092507;28;20495;-59
2022/08/12 01:01:45;;;;;;;8.80;5.55;;;17.90;99.90;;;;;;5091155;28;20031;-59
2022/08/12 01:12:31;;;;;;;8.85;6.10;;;17.80;99.90;;;;;;5094715;28;20019;-57
2022/08/12 01:14:56;;;;;;;10.02;5.75;;;17.70;99.90;;;;;;5092226;28;20377;-59
2022/08/12 01:17:23;;;;;;;9.32;5.50;;;17.70;99.90;;;;;;5099023;28;20021;-60
2022/08/12 01:19:51;;;;;;;8.20;5.72;;;17.70;99.90;;;;;;5094834;28;20118;-59
2022/08/12 01:22:36;;;;;;;9.18;6.03;;;17.70;99.90;;;;;;5089995;28;20102;-59
2022/08/12 01:25:05;;;;;;;9.75;6.25;;;17.70;99.90;;;;;;5095154;28;20027;-59
2022/08/12 01:27:33;;;;;;;10.05;6.43;;;17.70;99.90;;;;;;5092376;28;20027;-59
2022/08/12 01:30:01;;;;;;;12.07;6.00;;;17.60;99.90;;;;;;5089657;28;20036;-59
2022/08/12 01:32:29;;;;;;;9.85;6.57;;;17.60;99.90;;;;;;5095537;28;20404;-59
2022/08/12 01:35:16;;;;;;;15.25;6.68;;;17.60;99.90;;;;;;5095626;28;20111;-60
2022/08/12 01:37:56;;;;;;;16.17;6.70;;;17.60;99.90;;;;;;5094011;28;20028;-58
2022/08/12 01:40:29;;;;;;;10.35;5.95;;;17.50;99.90;;;;;;5093220;28;20582;-60
2022/08/12 01:43:00;;;;;;;9.20;5.65;;;17.50;99.90;;;;;;5087993;28;20031;-60
2022/08/12 01:45:28;;;;;;;12.30;6.10;;;17.50;99.90;;;;;;5090256;28;20512;-60
2022/08/12 01:48:13;;;;;;;10.23;6.38;;;17.40;99.90;;;;;;5089053;28;20020;-59
2022/08/12 01:50:54;;;;;;;9.38;6.03;;;17.50;99.90;;;;;;5088178;28;20028;-60
2022/08/12 01:53:23;;;;;;;10.07;5.72;;;17.50;99.90;;;;;;5088922;28;20012;-60
2022/08/12 01:55:50;;;;;;;11.23;5.65;;;17.50;99.90;;;;;;5089113;28;20074;-60
2022/08/12 01:58:24;;;;;;;8.80;5.88;;;17.50;99.90;;;;;;5088565;28;20043;-58
2022/08/12 02:00:57;;;;;;;9.30;5.93;;;17.60;99.90;;;;;;5090028;28;20016;-60
2022/08/12 02:12:35;;;;;;;8.15;5.90;;;17.40;99.90;;;;;;5086293;28;20047;-58
2022/08/12 02:15:24;;;;;;;9.18;5.78;;;17.40;99.90;;;;;;5085829;28;20478;-60
2022/08/12 02:18:25;;;;;;;9.75;5.80;;;17.30;99.90;;;;;;5090213;28;20031;-60
2022/08/12 02:21:09;;;;;;;7.47;5.75;;;17.40;99.90;;;;;;5089970;28;20028;-59
2022/08/12 02:23:36;;;;;;;9.68;6.50;;;17.40;99.90;;;;;;5086131;28;20024;-60
2022/08/12 02:26:08;;;;;;;10.32;5.70;;;17.30;99.90;;;;;;5087899;28;20089;-59
2022/08/12 02:28:36;;;;;;;10.27;5.85;;;17.30;99.90;;;;;;5091837;28;20038;-58
2022/08/12 02:31:05;;;;;;;9.52;5.60;;;17.30;99.90;;;;;;5089263;28;20028;-57
2022/08/12 02:33:32;;;;;;;9.43;5.88;;;17.20;99.90;;;;;;5088397;28;20024;-60
2022/08/12 02:36:01;;;;;;;8.65;5.90;;;17.30;99.90;;;;;;5088399;28;20069;-60
2022/08/12 02:38:27;;;;;;;9.02;6.25;;;17.30;99.90;;;;;;5090424;28;20015;-60
2022/08/12 02:40:54;;;;;;;11.57;6.07;;;17.20;99.90;;;;;;5090891;28;20031;-60
2022/08/12 02:43:29;;;;;;;7.65;5.20;;;17.20;99.90;;;;;;5089146;28;20026;-61
2022/08/12 02:46:05;;;;;;;15.52;5.85;;;17.20;99.90;;;;;;5087293;28;20115;-57
2022/08/12 02:48:49;;;;;;;10.35;5.43;;;17.10;99.90;;;;;;5091026;28;20412;-60
2022/08/12 02:51:19;;;;;;;8.45;5.82;;;17.10;99.90;;;;;;5091560;28;20027;-58
2022/08/12 02:53:45;;;;;;;14.57;6.40;;;16.90;99.90;;;;;;5090386;28;20580;-58
2022/08/12 02:56:11;;;;;;;8.07;6.13;;;16.90;99.90;;;;;;5085904;28;20020;-60
2022/08/12 02:58:37;;;;;;;10.05;5.97;;;16.90;99.90;;;;;;5085275;28;20024;-61
2022/08/12 03:01:08;;;;;;;18.77;5.40;;;16.80;99.90;;;;;;5088520;28;20131;-60
2022/08/12 03:03:35;;;;;;;14.00;6.13;;;16.80;99.90;;;;;;5084078;28;20527;-59
2022/08/12 03:06:20;;;;;;;7.78;6.10;;;16.80;99.90;;;;;;5089947;28;20062;-60
2022/08/12 03:08:46;;;;;;;11.40;6.43;;;16.90;99.90;;;;;;5086194;28;20028;-61
2022/08/12 03:11:15;;;;;;;13.98;5.95;;;16.90;99.90;;;;;;5090815;28;20036;-60
2022/08/12 03:13:45;;;;;;;11.40;5.55;;;17.00;99.90;;;;;;5091917;28;20028;-60
2022/08/12 03:16:11;;;;;;;9.23;5.82;;;17.00;99.90;;;;;;5090552;28;20019;-59
2022/08/12 03:18:40;;;;;;;10.73;6.05;;;17.00;99.90;;;;;;5091136;28;20024;-57
2022/08/12 03:21:06;;;;;;;11.57;5.70;;;16.90;99.90;;;;;;5088088;28;20787;-59
2022/08/12 03:23:31;;;;;;;13.20;6.93;;;16.90;99.90;;;;;;5086566;28;20032;-60
2022/08/12 03:26:00;;;;;;;11.20;5.60;;;16.80;99.90;;;;;;5085449;28;20052;-57
2022/08/12 03:31:13;;;;;;;12.13;7.00;;;16.70;99.90;;;;;;5085805;28;20107;-60
2022/08/12 03:33:42;;;;;;;14.70;6.28;;;16.60;99.90;;;;;;5091373;28;20043;-60
2022/08/12 03:36:08;;;;;;;8.27;6.15;;;16.50;99.90;;;;;;5090919;28;20102;-58
2022/08/12 03:38:37;;;;;;;8.43;6.15;;;16.50;99.90;;;;;;5088372;28;20032;-60
2022/08/12 04:00:55;;;;;;;7.65;6.05;;;16.30;99.90;;;;;;5087200;28;20062;-60
2022/08/12 04:06:08;;;;;;;11.80;6.43;;;16.20;99.90;;;;;;5087012;28;20067;-61
2022/08/12 04:08:34;;;;;;;16.83;6.10;;;16.20;99.90;;;;;;5094072;28;20464;-60
2022/08/12 04:13:45;;;;;;;12.00;6.22;;;16.10;99.90;;;;;;5089459;28;20022;-58
2022/08/12 04:16:12;;;;;;;13.07;6.53;;;16.00;99.90;;;;;;5086491;28;20520;-60
2022/08/12 04:18:39;;;;;;;8.77;6.05;;;16.00;99.90;;;;;;5086440;28;20065;-59
2022/08/12 04:21:08;;;;;;;11.98;6.25;;;16.00;99.90;;;;;;5095462;28;20430;-60
2022/08/12 04:26:00;;;;;;;15.07;7.18;;;16.00;99.90;;;;;;5046902;22;20132;-60
2022/08/12 04:28:27;;;;;;;11.15;6.63;;;15.90;99.90;;;;;;5027132;28;20102;-59
2022/08/12 04:30:55;;;;;;;6.93;5.72;;;16.00;99.90;;;;;;5029746;28;20071;-60
2022/08/12 04:33:20;;;;;;;8.90;5.72;;;16.00;99.90;;;;;;5032760;28;20075;-62
2022/08/12 04:35:46;;;;;;;12.98;5.93;;;16.00;99.90;;;;;;5025734;28;20021;-59
2022/08/12 04:38:12;;;;;;;11.07;6.57;;;16.00;99.90;;;;;;5029048;28;20021;-60
2022/08/12 04:40:38;;;;;;;11.10;6.30;;;16.10;99.90;;;;;;5028821;28;20037;-59
2022/08/12 04:43:05;;;;;;;10.43;6.03;;;16.10;99.90;;;;;;5035296;28;20124;-57
2022/08/12 04:45:33;;;;;;;10.95;5.70;;;16.20;99.90;;;;;;5028031;28;20659;-60
2022/08/12 04:48:00;;;;;;;10.88;5.95;;;16.10;99.90;;;;;;5034554;28;20424;-61
2022/08/12 04:50:27;;;;;;;8.80;6.32;;;16.20;99.90;;;;;;5008939;28;20049;-61
2022/08/12 04:52:54;;;;;;;9.07;5.70;;;16.20;99.90;;;;;;5030651;28;20063;-59
2022/08/12 04:55:22;;;;;;;12.48;5.72;;;16.20;99.90;;;;;;5021774;28;20120;-57
2022/08/12 04:57:47;;;;;;;12.55;6.30;;;16.30;99.90;;;;;;5021428;28;20379;-59
2022/08/12 05:00:15;;;;;;;12.30;5.88;;;16.30;99.90;;;;;;5022298;28;20033;-58
2022/08/12 05:02:41;;;;;;;9.93;5.65;;;16.20;99.90;;;;;;5028744;28;20279;-60
2022/08/12 05:05:09;;;;;;;10.55;6.30;;;16.20;99.90;;;;;;5034005;28;20480;-60
2022/08/12 05:07:35;;;;;;;10.77;5.68;;;16.30;99.90;;;;;;5033016;28;20044;-60
2022/08/12 05:10:02;;;;;;;15.25;5.20;;;16.30;99.90;;;;;;5020254;28;20024;-60
2022/08/12 05:12:37;;;;;;;9.13;6.40;;;16.30;99.90;;;;;;5030370;28;20051;-61
2022/08/12 05:15:05;;;;;;;8.70;5.55;;;16.40;99.90;;;;;;5033324;28;20013;-60
2022/08/12 05:17:31;;;;;;;10.00;5.68;;;16.40;99.90;;;;;;5047192;28;20026;-61
2022/08/12 05:19:56;;;;;;;12.23;5.90;;;16.40;99.90;;;;;;5023345;28;20037;-60
2022/08/12 05:22:22;;;;;;;9.57;6.80;;;16.50;99.90;;;;;;5023328;28;20028;-60
2022/08/12 05:24:47;;;;;;;9.25;5.78;;;16.60;99.90;;;;;;5028267;28;20450;-59
2022/08/12 05:27:13;;;;;;;12.68;5.97;;;16.70;99.90;;;;;;5030167;28;20483;-60
2022/08/12 05:29:39;;;;;;;11.40;5.32;;;16.70;99.90;;;;;;5021025;28;20063;-60
2022/08/12 05:32:06;;;;;;;11.75;5.72;;;16.80;99.90;;;;;;5033301;28;20014;-60
2022/08/12 05:34:33;;;;;;;11.45;6.35;;;16.90;99.90;;;;;;5041734;28;20018;-60
2022/08/12 05:37:00;;;;;;;7.82;5.38;;;16.90;99.90;;;;;;5032618;28;20046;-59
2022/08/12 05:39:25;;;;;;;7.53;5.75;;;17.00;99.90;;;;;;5043146;28;20340;-61
2022/08/12 05:41:52;;;;;;;9.52;5.22;;;17.20;99.90;;;;;;5043238;28;20028;-60
2022/08/12 05:44:18;;;;;;;11.15;5.63;;;17.20;99.90;;;;;;5044643;28;20053;-60
2022/08/12 05:46:44;;;;;;;7.85;5.60;;;17.30;99.90;;;;;;5044309;28;20360;-61
2022/08/12 05:49:09;;;;;;;10.07;5.30;;;17.40;99.90;;;;;;5045163;28;20074;-59
2022/08/12 05:51:37;;;;;;;15.10;5.40;;;17.50;99.90;;;;;;5030751;28;20032;-60
2022/08/12 05:54:03;;;;;;;11.90;5.35;;;17.60;99.90;;;;;;5046740;28;20049;-61
2022/08/12 05:56:32;;;;;;;11.63;5.20;;;17.70;99.90;;;;;;5032209;28;20060;-60
2022/08/12 05:59:00;;;;;;;6.57;4.55;;;17.70;99.90;;;;;;5039762;28;20021;-60
2022/08/12 06:01:27;;;;;;;9.48;5.13;;;17.90;99.90;;;;;;5043557;28;20025;-60
2022/08/12 06:03:53;;;;;;;11.57;4.80;;;17.90;99.90;;;;;;5048918;28;20021;-60
2022/08/12 06:06:21;;;;;;;7.75;4.75;;;18.00;99.90;;;;;;5049797;28;20029;-60
2022/08/12 06:08:52;;;;;;;10.65;4.90;;;18.10;99.90;;;;;;5046921;28;20032;-60
2022/08/12 06:11:23;;;;;;;10.40;4.93;;;18.20;99.90;;;;;;5050352;28;20033;-61
2022/08/12 06:13:49;;;;;;;9.07;4.82;;;18.40;99.90;;;;;;5042169;28;20013;-61
2022/08/12 06:16:17;;;;;;;6.68;4.38;;;18.50;99.90;;;;;;5045249;28;20447;-60
2022/08/12 06:18:44;;;;;;;13.02;4.60;;;18.60;99.90;;;;;;5046849;28;20096;-61
2022/08/12 06:21:14;;;;;;;5.28;3.92;;;18.70;99.90;;;;;;5031802;28;20505;-58
2022/08/12 06:23:41;;;;;;;13.82;3.92;;;18.80;99.90;;;;;;5030608;28;20017;-61
2022/08/12 06:26:10;;;;;;;12.68;3.90;;;18.90;99.90;;;;;;5048913;28;20029;-60
2022/08/12 06:28:37;;;;;;;9.88;4.15;;;19.00;99.90;;;;;;5039815;28;20032;-60
2022/08/12 06:31:05;;;;;;;10.82;3.75;;;19.00;99.90;;;;;;5036061;28;20033;-60
2022/08/12 06:33:31;;;;;;;9.88;3.88;;;19.10;99.90;;;;;;5030219;28;20459;-59
2022/08/12 06:35:57;;;;;;;19.48;5.45;;;19.20;99.90;;;;;;5029588;28;20040;-59
2022/08/12 06:38:24;;;;;;;6.97;4.00;;;19.40;99.90;;;;;;5041812;28;20029;-60
2022/08/12 06:43:45;;;;;;;10.32;3.65;;;19.50;99.90;;;;;;5051084;28;20087;-60
2022/08/12 06:46:12;;;;;;;10.48;3.70;;;19.60;99.90;;;;;;5042939;28;20636;-60
2022/08/12 06:48:41;;;;;;;9.02;3.50;;;19.70;99.90;;;;;;5035953;28;20018;-60
2022/08/12 06:51:07;;;;;;;6.72;3.58;;;19.70;99.90;;;;;;5050572;28;20009;-59
2022/08/12 06:53:33;;;;;;;7.35;4.05;;;19.90;99.90;;;;;;5032127;28;20497;-60
2022/08/12 06:55:59;;;;;;;9.13;3.97;;;19.90;99.90;;;;;;5024215;28;20029;-61
2022/08/12 06:58:29;;;;;;;8.15;3.47;;;20.00;99.90;;;;;;5023796;28;20013;-59
2022/08/12 07:00:56;;;;;;;11.77;3.80;;;20.10;99.90;;;;;;5023807;28;20025;-61
2022/08/12 07:03:29;;;;;;;10.32;3.35;;;20.20;99.90;;;;;;5023506;28;20841;-60
2022/08/12 07:06:04;;;;;;;6.75;3.25;;;20.40;99.90;;;;;;5022617;28;20503;-58
2022/08/12 07:08:33;;;;;;;5.80;3.45;;;20.50;99.90;;;;;;5023413;28;20865;-61
2022/08/12 07:11:05;;;;;;;5.47;3.65;;;20.60;99.90;;;;;;5023055;28;20036;-60
2022/08/12 07:13:41;;;;;;;8.90;3.83;;;20.70;99.90;;;;;;5025395;28;20033;-61
2022/08/12 07:16:08;;;;;;;5.95;3.53;;;20.80;99.90;;;;;;5019847;28;20009;-60
2022/08/12 07:18:33;;;;;;;5.57;3.47;;;20.80;99.90;;;;;;5005526;28;20548;-59
2022/08/12 07:21:04;;;;;;;4.53;3.45;;;21.00;99.90;;;;;;5022201;28;20046;-58
2022/08/12 07:23:35;;;;;;;8.07;3.03;;;21.10;99.90;;;;;;5021702;28;20053;-61
2022/08/12 07:26:03;;;;;;;4.95;3.30;;;21.20;99.90;;;;;;5021853;28;20525;-60
2022/08/12 07:28:32;;;;;;;5.93;2.88;;;21.30;99.90;;;;;;5022306;28;20044;-60
2022/08/12 07:30:58;;;;;;;6.38;2.85;;;21.40;99.90;;;;;;5024110;28;20026;-61
2022/08/12 07:33:28;;;;;;;6.30;3.53;;;21.50;99.90;;;;;;5020897;28;20032;-61
2022/08/12 07:35:56;;;;;;;4.60;2.83;;;21.60;99.90;;;;;;5021182;28;20483;-61
2022/08/12 07:38:24;;;;;;;5.95;2.78;;;21.70;99.90;;;;;;5021484;28;20887;-60
2022/08/12 07:40:55;;;;;;;4.45;3.30;;;21.80;99.90;;;;;;5025255;28;20072;-61
2022/08/12 07:43:21;;;;;;;5.43;3.20;;;21.90;99.90;;;;;;5035244;28;20010;-61
2022/08/12 07:45:48;;;;;;;7.85;3.08;;;22.00;99.90;;;;;;5029795;28;20091;-61
2022/08/12 07:48:13;;;;;;;12.15;3.25;;;22.10;99.90;;;;;;5022681;28;20062;-61
2022/08/12 07:50:39;;;;;;;4.53;3.20;;;22.30;99.90;;;;;;5027231;28;20072;-61
2022/08/12 07:53:04;;;;;;;9.38;2.85;;;22.40;99.90;;;;;;5023268;28;20136;-61
2022/08/12 07:55:30;;;;;;;9.60;2.70;;;22.50;99.90;;;;;;5021583;28;20021;-60
2022/08/12 07:57:58;;;;;;;6.40;2.83;;;22.70;99.90;;;;;;5022887;28;20038;-60
2022/08/12 08:00:28;;;;;;;3.97;2.70;;;22.80;99.90;;;;;;5023622;28;20472;-61
2022/08/12 08:02:54;;;;;;;8.15;2.92;;;22.80;99.90;;;;;;5021999;28;20045;-60
2022/08/12 08:05:23;;;;;;;3.42;2.35;;;22.90;99.90;;;;;;5022211;28;20040;-60
2022/08/12 08:07:49;;;;;;;6.35;2.30;;;23.00;99.90;;;;;;5022408;28;20098;-61
2022/08/12 08:10:15;;;;;;;7.97;3.10;;;23.20;99.90;;;;;;5023328;28;20501;-61
2022/08/12 08:12:55;;;;;;;4.03;2.72;;;23.50;99.90;;;;;;5021773;28;20387;-60
2022/08/12 08:15:27;;;;;;;8.63;2.65;;;23.70;99.90;;;;;;5023604;28;20029;-59
2022/08/12 08:17:56;;;;;;;2.80;2.30;;;23.80;99.90;;;;;;5020781;28;20018;-61
2022/08/12 08:20:27;;;;;;;6.38;2.42;;;23.80;99.90;;;;;;5004780;28;20076;-60
2022/08/12 08:22:53;;;;;;;4.82;2.92;;;23.90;99.90;;;;;;5019807;28;20029;-61
2022/08/12 08:25:19;;;;;;;7.80;2.35;;;24.00;99.90;;;;;;5021197;28;20042;-61
2022/08/12 08:27:48;;;;;;;4.15;2.17;;;24.10;99.90;;;;;;5022125;28;20479;-61
2022/08/12 08:30:15;;;;;;;4.38;2.53;;;24.20;99.90;;;;;;5029833;28;20067;-59
2022/08/12 08:32:40;;;;;;;5.47;2.90;;;24.20;99.90;;;;;;5023206;28;20033;-58
2022/08/12 08:35:09;;;;;;;4.40;2.20;;;24.40;99.90;;;;;;5023048;28;20099;-59
2022/08/12 08:37:35;;;;;;;5.25;2.40;;;24.50;99.90;;;;;;5022886;28;20026;-59
2022/08/12 08:42:35;;;;;;;6.55;2.42;;;24.70;99.90;;;;;;5023015;28;20052;-60
2022/08/12 08:42:46;;;;;;;5.28;2.60;;;24.80;99.90;;;;;;5022237;28;20056;-60
2022/08/12 08:45:12;;;;;;;7.60;2.65;;;25.00;99.90;;;;;;5022478;28;22166;-61
2022/08/12 08:47:45;;;;;;;5.80;2.10;;;25.20;99.90;;;;;;5022621;28;20415;-61
2022/08/12 08:50:13;;;;;;;5.30;2.10;;;25.30;99.90;;;;;;5026828;28;20029;-59
2022/08/12 08:52:40;;;;;;;5.13;1.75;;;25.50;99.90;;;;;;5024012;28;20377;-62
2022/08/12 08:55:06;;;;;;;11.93;2.17;;;25.50;99.90;;;;;;5046645;28;20051;-60
2022/08/12 08:57:31;;;;;;;3.67;2.00;;;25.70;99.90;;;;;;5029490;28;20032;-60
2022/08/12 08:59:59;;;;;;;5.70;2.25;;;25.80;99.90;;;;;;5031295;28;20429;-58
2022/08/12 09:02:24;;;;;;;9.20;2.17;;;25.90;99.90;;;;;;5027896;28;20487;-60
2022/08/12 09:04:50;;;;;;;1.92;1.63;;;26.10;99.90;;;;;;5037407;28;20059;-59
2022/08/12 09:07:17;;;;;;;5.65;2.08;;;26.10;99.90;;;;;;5026176;28;20504;-60
2022/08/12 09:09:43;;;;;;;6.20;2.10;;;26.30;99.90;;;;;;5025444;28;20021;-60
2022/08/12 09:14:53;;;;;;;9.75;2.00;;;26.60;99.90;;;;;;5026539;28;20024;-60
2022/08/12 09:17:19;;;;;;;6.43;1.73;;;26.70;99.90;;;;;;5024840;28;20045;-61
2022/08/12 09:19:44;;;;;;;10.85;2.22;;;26.70;99.90;;;;;;5024975;28;20017;-58
2022/08/12 09:22:10;;;;;;;4.40;1.90;;;26.90;99.90;;;;;;5025789;28;20017;-60
2022/08/12 09:24:36;;;;;;;1.92;1.63;;;27.00;99.90;;;;;;5026114;28;20044;-61
2022/08/12 09:27:02;;;;;;;6.35;2.17;;;27.00;99.90;;;;;;5025787;28;20021;-59
2022/08/12 09:29:28;;;;;;;18.15;2.42;;;27.30;99.90;;;;;;5023881;28;20021;-61
2022/08/12 09:31:54;;;;;;;4.13;2.08;;;27.50;99.90;;;;;;5035235;28;20572;-61
2022/08/12 09:34:19;;;;;;;4.75;2.03;;;27.60;99.90;;;;;;5025089;28;20033;-61
2022/08/12 09:36:45;;;;;;;5.72;1.67;;;27.80;99.90;;;;;;5026121;28;20382;-61
2022/08/12 09:39:12;;;;;;;7.43;2.50;;;27.90;99.90;;;;;;5024484;28;20025;-60
2022/08/12 09:41:43;;;;;;;2.20;1.95;;;28.00;99.60;;;;;;5023492;28;20104;-60
2022/08/12 09:46:53;;;;;;;7.78;1.80;;;28.30;98.60;;;;;;5033586;28;20631;-59
2022/08/12 09:49:20;;;;;;;3.45;1.95;;;28.40;96.40;;;;;;5033526;28;20117;-61
2022/08/12 09:51:46;;;;;;;3.85;1.60;;;28.50;95.00;;;;;;5039852;28;20114;-60
2022/08/12 09:54:26;;;;;;;2.10;1.60;;;28.70;93.50;;;;;;5030413;28;20033;-61
2022/08/12 09:56:52;;;;;;;4.78;1.70;;;28.80;94.50;;;;;;5020808;28;20078;-60
2022/08/12 09:59:18;;;;;;;3.83;1.58;;;28.90;94.40;;;;;;5040879;28;20537;-61
2022/08/12 10:01:44;;;;;;;4.05;1.70;;;29.10;93.80;;;;;;5041054;28;20045;-61
2022/08/12 10:04:11;;;;;;;9.90;1.80;;;29.20;93.40;;;;;;5032336;28;20025;-59
2022/08/12 10:06:38;;;;;;;3.45;2.72;;;29.30;92.10;;;;;;5035139;28;20135;-60
2022/08/12 10:09:05;;;;;;;4.72;2.42;;;29.30;93.20;;;;;;5038626;28;20029;-61
2022/08/12 10:14:16;;;;;;;5.63;1.75;;;29.80;91.90;;;;;;5024733;28;20081;-61
2022/08/12 10:16:44;;;;;;;5.00;1.77;;;30.00;90.60;;;;;;5028056;28;20495;-60
2022/08/12 10:19:11;;;;;;;4.32;1.52;;;30.20;90.30;;;;;;5031634;28;20033;-60
2022/08/12 10:21:39;;;;;;;3.45;2.47;;;30.30;90.60;;;;;;5033197;28;20030;-60
2022/08/12 10:24:10;;;;;;;1.83;1.52;;;30.30;87.70;;;;;;5029514;28;20597;-60
2022/08/12 10:29:35;;;;;;;2.97;2.05;;;30.60;87.00;;;;;;5033482;28;20039;-61
2022/08/12 10:32:02;;;;;;;3.50;1.15;;;30.80;89.30;;;;;;5009051;28;20452;-62
2022/08/12 10:34:28;;;;;;;4.75;1.40;;;30.80;83.90;;;;;;5026846;28;20029;-63
2022/08/12 10:36:57;;;;;;;4.57;1.60;;;30.80;84.00;;;;;;5044308;28;20032;-63
2022/08/12 10:39:25;;;;;;;4.78;1.25;;;31.00;81.10;;;;;;5042026;28;20022;-63
2022/08/12 10:44:35;;;;;;;2.20;1.35;;;31.00;82.10;;;;;;5031296;28;20032;-62
2022/08/12 10:47:02;;;;;;;1.63;1.35;;;31.30;78.70;;;;;;5032000;28;20332;-62
2022/08/12 10:49:33;;;;;;;3.08;1.40;;;31.50;76.40;;;;;;5028802;28;20384;-62
2022/08/12 10:52:01;;;;;;;5.93;1.70;;;31.70;79.00;;;;;;5031671;28;20099;-63
2022/08/12 10:54:27;;;;;;;4.28;1.80;;;31.80;77.10;;;;;;5030966;28;20018;-63
2022/08/12 10:56:56;;;;;;;2.45;1.38;;;31.70;73.90;;;;;;5031261;28;20045;-62
2022/08/12 10:59:23;;;;;;;2.65;1.45;;;31.30;74.70;;;;;;5029130;28;20026;-62
2022/08/12 11:01:50;;;;;;;2.13;1.55;;;31.50;73.10;;;;;;5042159;28;20044;-63
2022/08/12 11:04:16;;;;;;;1.67;1.30;;;31.60;73.70;;;;;;5023132;28;20060;-63
2022/08/12 11:06:49;;;;;;;11.45;1.63;;;31.40;75.80;;;;;;5023418;28;20451;-63
2022/08/12 11:09:30;;;;;;;2.17;1.73;;;31.50;76.00;;;;;;5025595;28;20033;-63
2022/08/12 11:11:58;;;;;;;4.07;1.60;;;32.10;76.20;;;;;;5023889;28;20514;-63
2022/08/12 11:14:27;;;;;;;4.65;1.40;;;32.20;73.00;;;;;;5028139;28;20117;-63
2022/08/12 11:17:05;;;;;;;2.38;1.80;;;32.10;70.60;;;;;;5036806;28;20021;-63
2022/08/12 11:19:33;;;;;;;1.83;1.65;;;31.90;71.30;;;;;;5032406;28;20021;-63
2022/08/12 11:22:00;;;;;;;2.90;2.00;;;32.00;73.20;;;;;;5014293;28;20025;-63
2022/08/12 11:24:26;;;;;;;5.68;1.40;;;32.30;70.00;;;;;;5030781;28;20033;-62
2022/08/12 11:26:53;;;;;;;2.20;1.55;;;32.30;68.20;;;;;;5019768;28;20044;-62
2022/08/12 11:29:21;;;;;;;5.85;1.33;;;32.30;70.20;;;;;;5031760;28;20034;-63
2022/08/12 11:31:47;;;;;;;1.95;1.35;;;32.60;68.50;;;;;;5029950;28;20420;-63
2022/08/12 11:34:14;;;;;;;3.13;1.20;;;32.30;73.60;;;;;;5044424;28;20021;-63
2022/08/12 11:36:53;;;;;;;5.03;1.80;;;32.10;67.70;;;;;;5040065;28;20081;-63
2022/08/12 11:39:20;;;;;;;2.38;1.38;;;32.40;64.70;;;;;;5047808;28;20017;-62
2022/08/12 11:41:45;;;;;;;8.10;1.52;;;32.40;64.90;;;;;;5042771;28;20479;-63
2022/08/12 11:44:11;;;;;;;4.60;1.67;;;32.40;66.50;;;;;;5027327;28;20029;-63
2022/08/12 11:46:38;;;;;;;2.30;1.50;;;32.40;66.50;;;;;;5030430;28;20606;-62
2022/08/12 11:49:04;;;;;;;1.67;1.17;;;32.70;68.70;;;;;;5031030;28;20040;-63
2022/08/12 11:51:30;;;;;;;5.65;1.52;;;33.00;66.40;;;;;;5023806;28;20514;-63
2022/08/12 11:53:56;;;;;;;2.05;1.33;;;33.30;67.50;;;;;;5028090;28;20037;-62
2022/08/12 11:56:21;;;;;;;4.65;1.50;;;33.60;62.30;;;;;;5023064;28;20021;-63
2022/08/12 11:58:47;;;;;;;4.65;1.10;;;33.40;64.50;;;;;;5026148;28;20021;-63
2022/08/12 12:01:13;;;;;;;3.58;1.33;;;33.40;62.50;;;;;;5032050;28;20506;-63
2022/08/12 12:03:39;;;;;;;2.15;1.33;;;33.80;62.70;;;;;;5031340;28;20037;-63
2022/08/12 12:06:05;;;;;;;7.30;1.70;;;33.60;64.70;;;;;;5028463;28;20045;-63
2022/08/12 12:08:30;;;;;;;4.72;1.40;;;33.40;61.00;;;;;;5037763;28;20033;-63
2022/08/12 12:10:56;;;;;;;2.33;1.48;;;33.20;59.60;;;;;;5028828;28;20076;-63
2022/08/12 12:13:22;;;;;;;1.98;1.45;;;33.30;64.00;;;;;;5032024;28;20024;-63
2022/08/12 12:15:48;;;;;;;1.98;1.45;;;33.50;63.50;;;;;;5033033;28;20030;-63
2022/08/12 12:18:23;;;;;;;6.65;1.67;;;33.70;63.90;;;;;;5037231;28;20037;-63
2022/08/12 12:20:50;;;;;;;2.92;1.40;;;33.50;61.10;;;;;;5031533;28;20021;-63
2022/08/12 12:23:16;;;;;;;5.53;1.60;;;33.80;62.50;;;;;;5032449;28;20497;-62
2022/08/12 12:25:42;;;;;;;1.35;1.25;;;34.10;60.00;;;;;;5033042;28;20124;-62
2022/08/12 12:28:08;;;;;;;3.58;1.52;;;34.30;58.10;;;;;;5034278;28;20112;-63
2022/08/12 12:30:35;;;;;;;10.93;1.25;;;34.50;58.40;;;;;;5029768;28;20448;-62
2022/08/12 12:33:01;;;;;;;7.10;1.20;;;34.20;59.60;;;;;;5029463;28;20574;-63
2022/08/12 12:35:26;;;;;;;1.75;1.58;;;34.30;59.40;;;;;;5031897;28;20061;-63
2022/08/12 12:38:00;;;;;;;2.45;1.20;;;34.40;57.00;;;;;;5031265;28;20061;-64
2022/08/12 12:40:27;;;;;;;2.00;1.17;;;34.40;58.10;;;;;;5031442;28;20037;-62
2022/08/12 12:42:54;;;;;;;2.22;1.40;;;34.50;57.10;;;;;;5041076;28;20029;-64
2022/08/12 12:45:20;;;;;;;4.03;1.17;;;34.40;58.60;;;;;;5032099;28;20036;-63
2022/08/12 12:47:58;;;;;;;6.03;1.23;;;34.90;60.00;;;;;;5049109;28;20033;-63
2022/08/12 12:50:31;;;;;;;4.88;1.17;;;35.00;55.60;;;;;;5043748;28;20487;-64
2022/08/12 12:52:58;;;;;;;2.25;1.10;;;34.80;56.00;;;;;;5032402;28;20400;-63
2022/08/12 12:55:24;;;;;;;2.72;1.17;;;34.80;55.70;;;;;;5027427;28;20029;-63
2022/08/12 12:57:51;;;;;;;1.30;1.13;;;34.40;54.40;;;;;;5022900;28;20372;-62
2022/08/12 13:00:17;;;;;;;1.73;1.25;;;34.60;54.40;;;;;;5047330;28;20410;-63
2022/08/12 13:02:51;;;;;;;4.70;1.10;;;34.60;56.30;;;;;;5045417;28;20037;-62
2022/08/12 13:05:20;;;;;;;4.65;1.90;;;34.10;51.40;;;;;;5043495;28;20033;-62
2022/08/12 13:07:46;;;;;;;2.42;1.10;;;34.80;51.30;;;;;;5027565;28;20036;-61
2022/08/12 13:10:12;;;;;;;2.13;1.40;;;35.00;52.20;;;;;;5040685;28;20442;-63
2022/08/12 13:12:39;;;;;;;1.77;1.10;;;34.80;53.10;;;;;;5039382;28;20037;-63
2022/08/12 13:15:14;;;;;;;2.25;1.30;;;34.80;55.30;;;;;;5030035;28;20035;-62
2022/08/12 13:17:49;;;;;;;4.72;1.63;;;35.00;56.50;;;;;;5037610;28;20064;-62
2022/08/12 13:20:16;;;;;;;4.10;1.10;;;34.80;55.50;;;;;;5050787;28;20039;-62
2022/08/12 13:22:43;;;;;;;1.73;1.15;;;34.60;55.30;;;;;;5049113;28;20053;-65
2022/08/12 13:25:10;;;;;;;2.33;1.40;;;34.60;55.60;;;;;;5050526;28;20395;-63
2022/08/12 13:27:40;;;;;;;1.30;1.10;;;34.60;55.00;;;;;;5043449;28;20086;-62
2022/08/12 13:30:11;;;;;;;1.40;1.10;;;34.70;54.60;;;;;;5041899;28;20029;-62
2022/08/12 13:32:39;;;;;;;1.75;1.38;;;35.40;51.40;;;;;;5042502;28;20068;-63
2022/08/12 13:35:05;;;;;;;5.03;1.25;;;35.20;54.10;;;;;;5030723;28;20025;-63
2022/08/12 13:37:31;;;;;;;2.03;1.20;;;35.20;52.70;;;;;;5018759;28;20021;-63
2022/08/12 13:39:56;;;;;;;2.67;1.25;;;35.20;52.80;;;;;;5045406;28;20079;-63
2022/08/12 13:42:22;;;;;;;4.63;1.33;;;35.50;53.10;;;;;;5036352;28;20065;-63
2022/08/12 13:44:52;;;;;;;1.63;1.05;;;35.90;48.80;;;;;;5034634;28;20033;-63
2022/08/12 13:47:21;;;;;;;5.50;1.33;;;35.30;51.30;;;;;;5023703;28;20044;-62
2022/08/12 13:49:50;;;;;;;1.60;1.00;;;35.00;51.40;;;;;;5024676;28;20553;-63
2022/08/12 13:52:17;;;;;;;4.22;1.20;;;35.00;50.70;;;;;;5027239;28;20041;-63
2022/08/12 13:54:46;;;;;;;6.03;1.50;;;34.60;50.70;;;;;;5024734;28;20475;-64
2022/08/12 13:57:14;;;;;;;3.35;1.25;;;34.60;50.50;;;;;;5028702;28;20404;-63
2022/08/12 13:59:43;;;;;;;1.30;1.13;;;34.00;51.00;;;;;;5026835;28;20024;-61
2022/08/12 14:02:12;;;;;;;1.92;1.65;;;34.60;51.00;;;;;;5028225;28;20025;-63
2022/08/12 14:04:40;;;;;;;1.30;1.20;;;34.70;50.40;;;;;;5027535;28;20388;-62
2022/08/12 14:07:06;;;;;;;1.17;1.08;;;34.60;50.10;;;;;;5027345;28;20102;-63
2022/08/12 14:10:34;;;;;;;8.02;1.00;;;34.90;51.70;;;;;;5027385;28;20032;-63
2022/08/12 14:12:20;;;;;;;1.20;1.10;;;35.20;48.80;;;;;;5022697;28;20044;-62
2022/08/12 14:14:49;;;;;;;5.30;1.15;;;35.30;49.40;;;;;;5029937;28;20040;-64
2022/08/12 14:17:15;;;;;;;1.67;1.30;;;35.00;49.20;;;;;;5028511;28;20395;-62
2022/08/12 14:20:12;;;;;;;3.55;1.42;;;34.40;49.60;;;;;;5027323;28;21509;-64
2022/08/12 14:22:27;;;;;;;2.58;1.05;;;34.10;50.90;;;;;;5029083;28;20026;-63
2022/08/12 14:24:53;;;;;;;1.95;1.13;;;34.00;49.70;;;;;;5028244;28;20029;-63
2022/08/12 14:27:18;;;;;;;1.80;1.02;;;33.80;50.40;;;;;;5024841;28;20295;-63
2022/08/12 14:29:45;;;;;;;4.43;1.23;;;34.50;51.60;;;;;;5028156;28;20418;-63
2022/08/12 14:32:10;;;;;;;1.75;1.20;;;35.20;49.50;;;;;;5033186;28;20163;-64
2022/08/12 14:34:36;;;;;;;3.83;1.30;;;34.60;50.90;;;;;;5033791;28;20104;-63
2022/08/12 14:37:05;;;;;;;1.35;1.15;;;34.50;50.80;;;;;;5028744;28;20548;-63
2022/08/12 14:39:30;;;;;;;9.48;1.30;;;34.70;49.50;;;;;;5030353;28;20076;-63
2022/08/12 14:41:56;;;;;;;2.03;1.40;;;34.80;51.80;;;;;;5025580;28;20037;-63